createdAt,value
2016-10-25T08:22:09.089Z,9.94
2016-10-25T08:23:09.061Z,10.09
2016-10-25T08:24:08.775Z,10
2016-10-25T08:25:09.099Z,9.99
2016-10-25T08:26:08.826Z,10
2016-10-25T08:27:08.838Z,10.06
2016-10-25T08:28:08.856Z,10.03
2016-10-25T08:29:09.169Z,10.06
2016-10-25T08:30:09.225Z,10.06
2016-10-25T08:31:09.213Z,10.05
2016-10-25T08:32:09.439Z,10.13
2016-10-25T08:33:09.259Z,10.24
2016-10-25T08:34:08.958Z,10.28
2016-10-25T08:35:08.967Z,10.25
2016-10-25T08:36:09.080Z,10.12
2016-10-25T08:37:09.321Z,10.27
2016-10-25T08:38:09.463Z,10.49
2016-10-25T08:39:09.056Z,10.42
2016-10-25T08:40:09.550Z,10.49
2016-10-25T08:41:09.084Z,10.46
2016-10-25T08:42:09.469Z,10.65
2016-10-25T08:43:09.104Z,10.67
2016-10-25T08:44:09.458Z,10.64
2016-10-25T08:45:09.529Z,10.75
2016-10-25T08:46:09.186Z,10.72
2016-10-25T08:47:09.184Z,10.65
2016-10-25T08:48:09.549Z,10.49
2016-10-25T08:49:09.554Z,10.39
2016-10-25T08:50:09.568Z,10.39
2016-10-25T08:51:09.599Z,10.42
2016-10-25T08:52:09.320Z,10.3
2016-10-25T08:53:09.296Z,10.34
2016-10-25T08:54:09.703Z,10.31
2016-10-25T08:55:09.735Z,10.38
2016-10-25T08:56:09.696Z,10.49
2016-10-25T08:57:09.752Z,10.46
2016-10-25T08:58:09.718Z,10.64
2016-10-25T08:59:09.740Z,10.67
2016-10-25T09:00:09.752Z,10.45
2016-10-25T09:01:09.462Z,10.38
2016-10-25T09:02:09.790Z,10.33
2016-10-25T09:03:09.543Z,10.43
2016-10-25T09:04:09.992Z,10.45
2016-10-25T09:05:09.855Z,10.46
2016-10-25T09:06:09.900Z,10.53
2016-10-25T09:07:09.624Z,10.41
2016-10-25T09:08:09.660Z,10.58
2016-10-25T09:09:10.019Z,10.53
2016-10-25T09:10:09.698Z,10.68
2016-10-25T09:11:09.648Z,10.71
2016-10-25T09:12:10.019Z,10.84
2016-10-25T09:13:09.992Z,11.08
2016-10-25T09:14:09.720Z,11.2
2016-10-25T09:15:10.043Z,11.22
2016-10-25T09:16:09.779Z,11.35
2016-10-25T09:17:10.166Z,11.41
2016-10-25T09:18:09.807Z,11.35
2016-10-25T09:19:10.269Z,11.05
2016-10-25T09:20:10.181Z,11.08
2016-10-25T09:21:10.290Z,11.16
2016-10-25T09:22:10.157Z,11.13
2016-10-25T09:23:09.878Z,11.26
2016-10-25T09:24:10.193Z,11.43
2016-10-25T09:25:09.904Z,11.59
2016-10-25T09:26:10.242Z,11.53
2016-10-25T09:27:09.962Z,11.62
2016-10-25T09:28:10.280Z,11.49
2016-10-25T09:29:10.311Z,11.45
2016-10-25T09:30:10.309Z,11.43
2016-10-25T09:31:10.448Z,11.33
2016-10-25T09:32:10.358Z,11.22
2016-10-25T09:33:10.465Z,11.13
2016-10-25T09:34:10.401Z,11.12
2016-10-25T09:35:10.103Z,11.12
2016-10-25T09:36:10.459Z,11.27
2016-10-25T09:37:10.143Z,11.26
2016-10-25T09:38:10.469Z,11.19
2016-10-25T09:39:10.188Z,11.13
2016-10-25T09:40:10.195Z,10.98
2016-10-25T09:41:10.528Z,11.13
2016-10-25T09:42:10.564Z,11.07
2016-10-25T09:43:10.596Z,11.01
2016-10-25T09:44:10.647Z,10.92
2016-10-25T09:45:10.594Z,10.89
2016-10-25T09:46:10.668Z,10.84
2016-10-25T09:47:10.329Z,10.76
2016-10-25T09:48:10.401Z,10.83
2016-10-25T09:49:10.694Z,10.95
2016-10-25T09:50:10.755Z,11.2
2016-10-25T09:51:10.097Z,11.19
2016-10-25T09:52:10.769Z,11.22
2016-10-25T09:53:10.776Z,11.25
2016-10-25T09:54:10.468Z,11.31
2016-10-25T09:55:10.806Z,11.27
2016-10-25T09:56:10.815Z,11.19
2016-10-25T09:57:10.513Z,11.08
2016-10-25T09:58:11.119Z,11.08
2016-10-25T09:59:11.176Z,10.95
2016-10-25T10:00:11.138Z,11.07
2016-10-25T10:01:10.620Z,11.1
2016-10-25T10:02:10.888Z,11.15
2016-10-25T10:03:10.899Z,11.26
2016-10-25T10:04:10.502Z,11.43
2016-10-25T10:05:10.589Z,11.62
2016-10-25T10:06:11.115Z,11.59
2016-10-25T10:07:11.189Z,11.51
2016-10-25T10:08:11.257Z,11.58
2016-10-25T10:09:11.224Z,11.8
2016-10-25T10:10:11.149Z,11.85
2016-10-25T10:11:11.201Z,11.89
2016-10-25T10:12:11.183Z,11.65
2016-10-25T10:13:10.888Z,11.52
2016-10-25T10:14:11.189Z,11.55
2016-10-25T10:15:11.201Z,11.6
2016-10-25T10:16:10.734Z,11.62
2016-10-25T10:17:11.251Z,11.43
2016-10-25T10:18:11.309Z,11.26
2016-10-25T10:19:11.272Z,11.18
2016-10-25T10:20:11.299Z,11.02
2016-10-25T10:21:11.308Z,11.12
2016-10-25T10:22:11.393Z,11.22
2016-10-25T10:23:11.490Z,11.27
2016-10-25T10:24:11.371Z,11.49
2016-10-25T10:25:11.381Z,11.67
2016-10-25T10:26:11.506Z,11.91
2016-10-25T10:27:11.122Z,11.99
2016-10-25T10:28:10.848Z,12.02
2016-10-25T10:29:11.166Z,12.3
2016-10-25T10:30:11.220Z,12.47
2016-10-25T10:31:11.512Z,12.69
2016-10-25T10:32:11.515Z,12.61
2016-10-25T10:33:11.213Z,12.39
2016-10-25T10:34:11.551Z,12.36
2016-10-25T10:35:11.673Z,12.51
2016-10-25T10:36:11.280Z,12.5
2016-10-25T10:37:11.718Z,12.54
2016-10-25T10:38:11.721Z,12.48
2016-10-25T10:39:11.735Z,12.37
2016-10-25T10:40:11.732Z,12.33
2016-10-25T10:41:11.388Z,12.17
2016-10-25T10:42:11.720Z,12.17
2016-10-25T10:43:11.434Z,12.32
2016-10-25T10:44:11.751Z,12.28
2016-10-25T10:45:11.471Z,12.28
2016-10-25T10:46:11.893Z,12.33
2016-10-25T10:47:11.818Z,12.18
2016-10-25T10:48:11.568Z,12.39
2016-10-25T10:49:11.986Z,12.28
2016-10-25T10:50:11.592Z,12.4
2016-10-25T10:51:11.900Z,12.69
2016-10-25T10:52:11.919Z,12.63
2016-10-25T10:53:11.924Z,12.69
2016-10-25T10:54:11.969Z,12.29
2016-10-25T10:55:12.002Z,11.96
2016-10-25T10:56:11.992Z,11.93
2016-10-25T10:57:12.010Z,11.96
2016-10-25T10:58:11.762Z,11.74
2016-10-25T10:59:12.152Z,11.76
2016-10-25T11:00:11.863Z,11.59
2016-10-25T11:01:11.467Z,11.49
2016-10-25T11:02:11.584Z,11.34
2016-10-25T11:03:12.186Z,11.25
2016-10-25T11:04:12.159Z,11.13
2016-10-25T11:05:12.181Z,11.27
2016-10-25T11:06:12.191Z,11.34
2016-10-25T11:07:12.229Z,11.48
2016-10-25T11:08:11.932Z,11.59
2016-10-25T11:09:11.951Z,11.7
2016-10-25T11:10:12.273Z,11.93
2016-10-25T11:11:12.289Z,12.08
2016-10-25T11:12:12.322Z,12.28
2016-10-25T11:13:12.329Z,12.14
2016-10-25T11:14:12.048Z,12.08
2016-10-25T11:15:12.396Z,12.17
2016-10-25T11:16:12.399Z,12.12
2016-10-25T11:17:12.421Z,12.05
2016-10-25T11:18:12.447Z,11.97
2016-10-25T11:19:12.447Z,11.8
2016-10-25T11:20:12.479Z,11.73
2016-10-25T11:21:12.500Z,11.71
2016-10-25T11:22:12.306Z,11.52
2016-10-25T11:23:12.520Z,11.58
2016-10-25T11:24:12.327Z,11.67
2016-10-25T11:25:12.271Z,11.81
2016-10-25T11:26:12.689Z,11.76
2016-10-25T11:27:12.290Z,11.88
2016-10-25T11:28:12.347Z,12.07
2016-10-25T11:29:12.330Z,12.28
2016-10-25T11:30:12.681Z,12.29
2016-10-25T11:31:12.693Z,12.2
2016-10-25T11:32:12.722Z,12.05
2016-10-25T11:33:12.732Z,12.15
2016-10-25T11:34:12.426Z,12.03
2016-10-25T11:35:12.441Z,12.2
2016-10-25T11:36:12.804Z,12.15
2016-10-25T11:37:12.502Z,12.07
2016-10-25T11:38:12.820Z,11.95
2016-10-25T11:39:12.864Z,11.85
2016-10-25T11:40:12.877Z,11.73
2016-10-25T11:41:12.582Z,11.49
2016-10-25T11:42:12.900Z,11.53
2016-10-25T11:43:12.938Z,11.34
2016-10-25T11:44:12.942Z,11.34
2016-10-25T11:45:12.957Z,11.35
2016-10-25T11:46:12.989Z,11.44
2016-10-25T11:47:13.003Z,11.49
2016-10-25T11:48:13.009Z,11.51
2016-10-25T11:49:13.031Z,11.71
2016-10-25T11:50:13.052Z,11.73
2016-10-25T11:51:13.089Z,11.95
2016-10-25T11:52:13.111Z,11.83
2016-10-25T11:53:13.120Z,11.81
2016-10-25T11:54:13.148Z,11.88
2016-10-25T11:55:13.152Z,11.85
2016-10-25T11:56:13.191Z,11.8
2016-10-25T11:57:13.199Z,11.89
2016-10-25T11:58:12.598Z,11.83
2016-10-25T11:59:13.260Z,11.76
2016-10-25T12:00:12.986Z,11.77
2016-10-25T12:01:13.273Z,11.97
2016-10-25T12:02:13.090Z,12.14
2016-10-25T12:03:12.999Z,11.97
2016-10-25T12:04:13.384Z,12.18
2016-10-25T12:05:13.382Z,12.26
2016-10-25T12:06:13.368Z,12.07
2016-10-25T12:07:13.388Z,11.97
2016-10-25T12:08:13.406Z,12.12
2016-10-25T12:09:12.800Z,11.97
2016-10-25T12:10:13.459Z,11.88
2016-10-25T12:11:13.490Z,11.8
2016-10-25T12:12:13.489Z,11.71
2016-10-25T12:13:13.546Z,11.56
2016-10-25T12:14:13.213Z,11.52
2016-10-25T12:15:13.549Z,11.31
2016-10-25T12:16:13.571Z,11.05
2016-10-25T12:17:13.666Z,11.01
2016-10-25T12:18:13.708Z,10.92
2016-10-25T12:19:13.331Z,10.92
2016-10-25T12:20:13.694Z,10.92
2016-10-25T12:21:13.659Z,10.83
2016-10-25T12:22:13.681Z,10.77
2016-10-25T12:23:13.446Z,10.82
2016-10-25T12:24:13.440Z,10.84
2016-10-25T12:25:13.773Z,10.9
2016-10-25T12:26:13.786Z,10.89
2016-10-25T12:27:13.807Z,10.98
2016-10-25T12:28:13.843Z,10.9
2016-10-25T12:29:13.895Z,10.95
2016-10-25T12:30:13.542Z,11
2016-10-25T12:31:13.890Z,10.89
2016-10-25T12:32:13.563Z,10.86
2016-10-25T12:33:13.569Z,10.9
2016-10-25T12:34:13.915Z,10.89
2016-10-25T12:35:13.938Z,10.87
2016-10-25T12:36:13.962Z,10.92
2016-10-25T12:37:13.657Z,10.83
2016-10-25T12:38:14.001Z,10.8
2016-10-25T12:39:14.149Z,10.9
2016-10-25T12:40:13.882Z,10.77
2016-10-25T12:41:14.051Z,10.84
2016-10-25T12:42:14.047Z,10.89
2016-10-25T12:43:14.137Z,10.8
2016-10-25T12:44:14.170Z,10.77
2016-10-25T12:45:14.122Z,10.76
2016-10-25T12:46:13.831Z,10.75
2016-10-25T12:47:14.149Z,10.79
2016-10-25T12:48:14.178Z,10.71
2016-10-25T12:49:14.199Z,10.72
2016-10-25T12:50:14.220Z,10.67
2016-10-25T12:51:13.943Z,10.62
2016-10-25T12:52:14.253Z,10.65
2016-10-25T12:53:14.378Z,10.62
2016-10-25T12:54:14.279Z,10.51
2016-10-25T12:55:13.985Z,10.58
2016-10-25T12:56:14.002Z,10.62
2016-10-25T12:57:14.406Z,10.62
2016-10-25T12:58:14.059Z,10.67
2016-10-25T12:59:14.370Z,10.62
2016-10-25T13:00:14.141Z,10.69
2016-10-25T13:01:14.418Z,10.72
2016-10-25T13:02:14.203Z,10.8
2016-10-25T13:03:14.454Z,10.76
2016-10-25T13:04:14.482Z,10.8
2016-10-25T13:05:14.168Z,10.83
2016-10-25T13:06:14.636Z,10.86
2016-10-25T13:07:14.529Z,10.9
2016-10-25T13:08:14.558Z,10.87
2016-10-25T13:09:14.576Z,10.87
2016-10-25T13:10:14.589Z,10.9
2016-10-25T13:11:14.276Z,10.86
2016-10-25T13:12:14.309Z,10.95
2016-10-25T13:13:14.633Z,10.86
2016-10-25T13:14:14.682Z,10.87
2016-10-25T13:15:14.368Z,10.82
2016-10-25T13:16:14.696Z,10.87
2016-10-25T13:17:14.726Z,10.89
2016-10-25T13:18:14.721Z,10.77
2016-10-25T13:19:14.426Z,10.8
2016-10-25T13:20:14.452Z,10.76
2016-10-25T13:21:14.478Z,10.75
2016-10-25T13:22:14.509Z,10.82
2016-10-25T13:23:14.511Z,10.72
2016-10-25T13:24:14.852Z,10.83
2016-10-25T13:25:14.551Z,10.95
2016-10-25T13:26:14.888Z,10.97
2016-10-25T13:27:14.889Z,11.08
2016-10-25T13:28:14.612Z,11.13
2016-10-25T13:29:14.935Z,10.98
2016-10-25T13:30:14.961Z,11.04
2016-10-25T13:31:14.683Z,10.86
2016-10-25T13:32:14.992Z,10.82
2016-10-25T13:33:15.012Z,10.76
2016-10-25T13:34:15.039Z,10.71
2016-10-25T13:35:15.040Z,10.76
2016-10-25T13:36:14.776Z,10.68
2016-10-25T13:37:14.771Z,10.57
2016-10-25T13:38:14.789Z,10.57
2016-10-25T13:39:15.132Z,10.61
2016-10-25T13:40:15.132Z,10.59
2016-10-25T13:41:15.169Z,10.57
2016-10-25T13:42:15.185Z,10.61
2016-10-25T13:43:14.583Z,10.76
2016-10-25T13:44:14.611Z,10.67
2016-10-25T13:45:15.237Z,10.67
2016-10-25T13:46:15.259Z,10.68
2016-10-25T13:47:15.367Z,10.64
2016-10-25T13:48:15.292Z,10.59
2016-10-25T13:49:15.308Z,10.62
2016-10-25T13:50:15.019Z,10.59
2016-10-25T13:51:15.353Z,10.61
2016-10-25T13:52:14.763Z,10.59
2016-10-25T13:53:15.390Z,10.62
2016-10-25T13:54:15.391Z,10.61
2016-10-25T13:55:15.459Z,10.72
2016-10-25T13:56:15.420Z,10.77
2016-10-25T13:57:15.528Z,10.79
2016-10-25T13:58:15.153Z,10.92
2016-10-25T13:59:15.282Z,11
2016-10-25T14:00:15.509Z,11.12
2016-10-25T14:01:15.608Z,11.19
2016-10-25T14:02:15.638Z,11.3
2016-10-25T14:03:15.270Z,11.23
2016-10-25T14:04:15.606Z,11.25
2016-10-25T14:05:15.632Z,11.22
2016-10-25T14:06:15.420Z,11.22
2016-10-25T14:07:15.323Z,11.23
2016-10-25T14:08:15.408Z,11.31
2016-10-25T14:09:15.678Z,11.25
2016-10-25T14:10:15.854Z,11.15
2016-10-25T14:11:15.844Z,11.04
2016-10-25T14:12:15.822Z,11
2016-10-25T14:13:15.736Z,10.9
2016-10-25T14:14:15.829Z,10.83
2016-10-25T14:15:15.475Z,10.75
2016-10-25T14:16:15.819Z,10.76
2016-10-25T14:17:15.512Z,10.71
2016-10-25T14:18:15.354Z,10.69
2016-10-25T14:19:15.859Z,10.67
2016-10-25T14:20:15.877Z,10.62
2016-10-25T14:21:15.892Z,10.65
2016-10-25T14:22:15.597Z,10.55
2016-10-25T14:23:15.940Z,10.46
2016-10-25T14:24:16.146Z,10.53
2016-10-25T14:25:15.988Z,10.46
2016-10-25T14:26:16.160Z,10.45
2016-10-25T14:27:16.069Z,10.45
2016-10-25T14:28:15.760Z,10.45
2016-10-25T14:29:16.120Z,10.42
2016-10-25T14:30:15.758Z,10.38
2016-10-25T14:31:16.088Z,10.41
2016-10-25T14:32:16.123Z,10.38
2016-10-25T14:33:16.171Z,10.38
2016-10-25T14:34:15.919Z,10.43
2016-10-25T14:35:16.170Z,10.42
2016-10-25T14:36:16.296Z,10.42
2016-10-25T14:37:16.031Z,10.41
2016-10-25T14:38:16.309Z,10.39
2016-10-25T14:39:16.128Z,10.38
2016-10-25T14:40:15.966Z,10.42
2016-10-25T14:41:15.960Z,10.38
2016-10-25T14:42:15.980Z,10.39
2016-10-25T14:43:16.309Z,10.49
2016-10-25T14:44:16.118Z,10.53
2016-10-25T14:45:16.036Z,10.53
2016-10-25T14:46:16.399Z,10.53
2016-10-25T14:47:16.378Z,10.55
2016-10-25T14:48:16.075Z,10.61
2016-10-25T14:49:16.120Z,10.65
2016-10-25T14:50:16.540Z,10.67
2016-10-25T14:51:16.448Z,10.79
2016-10-25T14:52:16.537Z,10.76
2016-10-25T14:53:16.187Z,10.72
2016-10-25T14:54:16.253Z,10.9
2016-10-25T14:55:16.509Z,11
2016-10-25T14:56:16.239Z,11.02
2016-10-25T14:57:16.557Z,11.13
2016-10-25T14:58:16.577Z,11.18
2016-10-25T14:59:16.580Z,11.26
2016-10-25T15:00:16.620Z,11.2
2016-10-25T15:01:16.630Z,11.15
2016-10-25T15:02:16.337Z,11.08
2016-10-25T15:03:16.160Z,10.97
2016-10-25T15:04:16.690Z,11
2016-10-25T15:05:16.809Z,11
2016-10-25T15:06:16.729Z,10.95
2016-10-25T15:07:16.789Z,10.83
2016-10-25T15:08:16.768Z,10.75
2016-10-25T15:09:16.779Z,10.72
2016-10-25T15:10:16.818Z,10.62
2016-10-25T15:11:16.818Z,10.59
2016-10-25T15:12:16.850Z,10.45
2016-10-25T15:13:16.874Z,10.39
2016-10-25T15:14:16.573Z,10.45
2016-10-25T15:15:16.797Z,10.33
2016-10-25T15:16:16.911Z,10.43
2016-10-25T15:17:16.932Z,10.34
2016-10-25T15:18:16.949Z,10.36
2016-10-25T15:19:16.644Z,10.25
2016-10-25T15:20:16.986Z,10.3
2016-10-25T15:21:16.993Z,10.23
2016-10-25T15:22:17.056Z,10.21
2016-10-25T15:23:17.023Z,10.17
2016-10-25T15:24:17.063Z,10.09
2016-10-25T15:25:16.447Z,10.06
2016-10-25T15:26:17.093Z,10.09
2016-10-25T15:27:17.115Z,10.03
2016-10-25T15:28:17.168Z,9.97
2016-10-25T15:29:17.148Z,9.88
2016-10-25T15:30:16.536Z,9.87
2016-10-25T15:31:16.909Z,9.81
2016-10-25T15:32:17.218Z,9.76
2016-10-25T15:33:17.280Z,9.66
2016-10-25T15:34:17.249Z,9.54
2016-10-25T15:35:17.378Z,9.51
2016-10-25T15:36:17.288Z,9.48
2016-10-25T15:37:16.991Z,9.4
2016-10-25T15:38:17.306Z,9.27
2016-10-25T15:39:17.320Z,9.15
2016-10-25T15:40:17.340Z,9.11
2016-10-25T15:41:17.221Z,9.05
2016-10-25T15:42:17.481Z,9.05
2016-10-25T15:43:17.478Z,8.97
2016-10-25T15:44:17.123Z,8.93
2016-10-25T15:45:17.470Z,8.82
2016-10-25T15:46:17.506Z,8.79
2016-10-25T15:47:17.504Z,8.78
2016-10-25T15:48:17.703Z,8.59
2016-10-25T15:49:17.495Z,8.54
2016-10-25T15:50:17.380Z,8.46
2016-10-25T15:51:17.554Z,8.49
2016-10-25T15:52:17.557Z,8.41
2016-10-25T15:53:17.269Z,8.38
2016-10-25T15:54:17.709Z,8.39
2016-10-25T15:55:17.654Z,8.27
2016-10-25T15:56:17.679Z,8.21
2016-10-25T15:57:17.659Z,8.21
2016-10-25T15:58:17.395Z,8.14
2016-10-25T15:59:17.698Z,8.17
2016-10-25T16:00:17.506Z,8.02
2016-10-25T16:01:17.735Z,8.06
2016-10-25T16:02:17.739Z,7.95
2016-10-25T16:03:17.500Z,7.81
2016-10-25T16:04:17.768Z,7.84
2016-10-25T16:05:17.594Z,7.61
2016-10-25T16:06:17.517Z,7.67
2016-10-25T16:07:17.826Z,7.58
2016-10-25T16:08:17.834Z,7.53
2016-10-25T16:09:17.555Z,7.48
2016-10-25T16:10:17.991Z,7.48
2016-10-25T16:11:17.991Z,7.46
2016-10-25T16:12:18.016Z,7.32
2016-10-25T16:13:17.924Z,7.32
2016-10-25T16:14:17.619Z,7.4
2016-10-25T16:15:18.013Z,7.21
2016-10-25T16:16:17.980Z,7.25
2016-10-25T16:17:17.677Z,7.26
2016-10-25T16:18:17.746Z,7.18
2016-10-25T16:19:17.723Z,7.19
2016-10-25T16:20:18.042Z,7.15
2016-10-25T16:21:18.067Z,7.04
2016-10-25T16:22:17.834Z,7.13
2016-10-25T16:23:18.209Z,7.03
2016-10-25T16:24:18.194Z,7.07
2016-10-25T16:25:18.197Z,7.07
2016-10-25T16:26:17.820Z,7.04
2016-10-25T16:27:17.528Z,7.04
2016-10-25T16:28:17.933Z,6.96
2016-10-25T16:29:18.209Z,7
2016-10-25T16:30:18.204Z,6.87
2016-10-25T16:31:18.237Z,6.8
2016-10-25T16:32:18.243Z,6.8
2016-10-25T16:33:18.270Z,6.67
2016-10-25T16:34:17.977Z,6.72
2016-10-25T16:35:17.990Z,6.67
2016-10-25T16:36:17.999Z,6.67
2016-10-25T16:37:18.034Z,6.62
2016-10-25T16:38:18.343Z,6.64
2016-10-25T16:39:18.373Z,6.62
2016-10-25T16:40:18.616Z,6.71
2016-10-25T16:41:18.622Z,6.7
2016-10-25T16:42:18.104Z,6.7
2016-10-25T16:43:18.670Z,6.62
2016-10-25T16:44:18.122Z,6.62
2016-10-25T16:45:18.664Z,6.6
2016-10-25T16:46:18.677Z,6.56
2016-10-25T16:47:18.698Z,6.65
2016-10-25T16:48:18.711Z,6.59
2016-10-25T16:49:18.693Z,6.6
2016-10-25T16:50:18.247Z,6.59
2016-10-25T16:51:18.323Z,6.6
2016-10-25T16:52:18.280Z,6.64
2016-10-25T16:53:18.282Z,6.65
2016-10-25T16:54:18.702Z,6.62
2016-10-25T16:55:18.312Z,6.7
2016-10-25T16:56:18.018Z,6.65
2016-10-25T16:57:18.715Z,6.57
2016-10-25T16:58:18.784Z,6.65
2016-10-25T16:59:18.707Z,6.6
2016-10-25T17:00:18.714Z,6.65
2016-10-25T17:01:18.408Z,6.67
2016-10-25T17:02:18.831Z,6.62
2016-10-25T17:03:18.759Z,6.6
2016-10-25T17:04:18.827Z,6.62
2016-10-25T17:05:18.472Z,6.59
2016-10-25T17:06:18.858Z,6.57
2016-10-25T17:07:18.834Z,6.53
2016-10-25T17:08:18.812Z,6.52
2016-10-25T17:09:18.850Z,6.44
2016-10-25T17:10:18.243Z,6.41
2016-10-25T17:11:18.824Z,6.36
2016-10-25T17:12:18.794Z,6.38
2016-10-25T17:13:18.914Z,6.32
2016-10-25T17:14:18.934Z,6.34
2016-10-25T17:15:18.956Z,6.29
2016-10-25T17:16:18.979Z,6.28
2016-10-25T17:17:18.804Z,6.16
2016-10-25T17:18:19.005Z,6.19
2016-10-25T17:19:18.802Z,6.07
2016-10-25T17:20:19.241Z,6.1
2016-10-25T17:21:19.062Z,6.12
2016-10-25T17:22:18.872Z,6.01
2016-10-25T17:23:18.881Z,5.98
2016-10-25T17:24:19.089Z,6.02
2016-10-25T17:25:18.852Z,5.98
2016-10-25T17:26:19.335Z,5.92
2016-10-25T17:27:18.883Z,5.92
2016-10-25T17:28:19.174Z,5.92
2016-10-25T17:29:18.907Z,5.77
2016-10-25T17:30:18.917Z,5.81
2016-10-25T17:31:19.209Z,5.88
2016-10-25T17:32:19.211Z,5.83
2016-10-25T17:33:19.224Z,5.81
2016-10-25T17:34:18.953Z,5.74
2016-10-25T17:35:19.280Z,5.77
2016-10-25T17:36:19.304Z,5.79
2016-10-25T17:37:18.692Z,5.74
2016-10-25T17:38:19.334Z,5.73
2016-10-25T17:39:19.064Z,5.72
2016-10-25T17:40:19.390Z,5.79
2016-10-25T17:41:19.371Z,5.74
2016-10-25T17:42:19.403Z,5.69
2016-10-25T17:43:19.100Z,5.61
2016-10-25T17:44:19.504Z,5.61
2016-10-25T17:45:19.425Z,5.58
2016-10-25T17:46:19.501Z,5.56
2016-10-25T17:47:19.486Z,5.44
2016-10-25T17:48:19.474Z,5.44
2016-10-25T17:49:19.195Z,5.47
2016-10-25T17:50:19.664Z,5.49
2016-10-25T17:51:19.784Z,5.47
2016-10-25T17:52:19.584Z,5.46
2016-10-25T17:53:19.597Z,5.46
2016-10-25T17:54:19.056Z,5.43
2016-10-25T17:55:19.651Z,5.43
2016-10-25T17:56:19.611Z,5.38
2016-10-25T17:57:19.650Z,5.26
2016-10-25T17:58:19.375Z,5.37
2016-10-25T17:59:19.804Z,5.36
2016-10-25T18:00:19.753Z,5.28
2016-10-25T18:01:19.857Z,5.22
2016-10-25T18:02:19.713Z,5.28
2016-10-25T18:03:19.740Z,5.26
2016-10-25T18:04:19.428Z,5.34
2016-10-25T18:05:19.306Z,5.29
2016-10-25T18:06:19.777Z,5.29
2016-10-25T18:07:19.815Z,5.41
2016-10-25T18:08:19.828Z,5.34
2016-10-25T18:09:19.561Z,5.28
2016-10-25T18:10:19.867Z,5.36
2016-10-25T18:11:19.585Z,5.33
2016-10-25T18:12:19.977Z,5.36
2016-10-25T18:13:19.567Z,5.44
2016-10-25T18:14:20.004Z,5.29
2016-10-25T18:15:19.272Z,5.38
2016-10-25T18:16:19.993Z,5.31
2016-10-25T18:17:19.985Z,5.28
2016-10-25T18:18:19.642Z,5.2
2016-10-25T18:19:19.995Z,5.16
2016-10-25T18:20:20.033Z,5.15
2016-10-25T18:21:20.104Z,5.12
2016-10-25T18:22:19.732Z,5.13
2016-10-25T18:23:20.044Z,5.07
2016-10-25T18:24:20.062Z,5.04
2016-10-25T18:25:19.756Z,4.98
2016-10-25T18:26:20.122Z,5.05
2016-10-25T18:27:19.801Z,4.89
2016-10-25T18:28:20.198Z,4.97
2016-10-25T18:29:20.121Z,4.94
2016-10-25T18:30:20.188Z,4.82
2016-10-25T18:31:20.145Z,4.89
2016-10-25T18:32:20.205Z,4.84
2016-10-25T18:33:20.217Z,4.9
2016-10-25T18:34:20.229Z,4.71
2016-10-25T18:35:19.919Z,4.68
2016-10-25T18:36:20.234Z,4.76
2016-10-25T18:37:20.273Z,4.82
2016-10-25T18:38:19.986Z,4.71
2016-10-25T18:39:20.382Z,4.74
2016-10-25T18:40:20.343Z,4.64
2016-10-25T18:41:20.397Z,4.66
2016-10-25T18:42:20.874Z,4.66
2016-10-25T18:43:20.079Z,4.61
2016-10-25T18:44:20.047Z,4.52
2016-10-25T18:45:20.369Z,4.49
2016-10-25T18:46:20.104Z,4.53
2016-10-25T18:47:20.426Z,4.48
2016-10-25T18:48:20.124Z,4.43
2016-10-25T18:49:20.436Z,4.53
2016-10-25T18:50:19.942Z,4.32
2016-10-25T18:51:20.487Z,4.43
2016-10-25T18:52:20.197Z,4.38
2016-10-25T18:53:20.490Z,4.32
2016-10-25T18:54:20.521Z,4.31
2016-10-25T18:55:20.522Z,4.27
2016-10-25T18:56:20.330Z,4.28
2016-10-25T18:57:20.638Z,4.28
2016-10-25T18:58:20.694Z,4.31
2016-10-25T18:59:20.719Z,4.31
2016-10-25T19:00:20.365Z,4.28
2016-10-25T19:01:20.767Z,4.34
2016-10-25T19:02:20.022Z,4.32
2016-10-25T19:03:20.673Z,4.36
2016-10-25T19:04:20.657Z,4.36
2016-10-25T19:05:20.732Z,4.39
2016-10-25T19:06:20.770Z,4.45
2016-10-25T19:07:20.750Z,4.38
2016-10-25T19:08:20.784Z,4.28
2016-10-25T19:09:20.796Z,4.27
2016-10-25T19:10:20.854Z,4.2
2016-10-25T19:11:20.890Z,4.27
2016-10-25T19:12:20.502Z,4.18
2016-10-25T19:13:20.911Z,4.13
2016-10-25T19:14:20.557Z,4.14
2016-10-25T19:15:20.949Z,4.1
2016-10-25T19:16:20.597Z,4.13
2016-10-25T19:17:20.912Z,4.09
2016-10-25T19:18:20.939Z,4.06
2016-10-25T19:19:20.649Z,4.07
2016-10-25T19:20:20.616Z,4.14
2016-10-25T19:21:20.636Z,4.1
2016-10-25T19:22:20.690Z,4.16
2016-10-25T19:23:20.981Z,4.32
2016-10-25T19:24:21.001Z,4.45
2016-10-25T19:25:20.696Z,4.39
2016-10-25T19:26:21.055Z,4.3
2016-10-25T19:27:21.054Z,4.27
2016-10-25T19:28:21.070Z,4.16
2016-10-25T19:29:21.091Z,4.14
2016-10-25T19:30:21.108Z,4.06
2016-10-25T19:31:20.524Z,4.03
2016-10-25T19:32:20.798Z,4
2016-10-25T19:33:21.201Z,4.04
2016-10-25T19:34:21.158Z,3.96
2016-10-25T19:35:21.162Z,3.96
2016-10-25T19:36:20.864Z,3.91
2016-10-25T19:37:21.193Z,3.77
2016-10-25T19:38:21.206Z,3.84
2016-10-25T19:39:21.229Z,3.73
2016-10-25T19:40:20.963Z,3.73
2016-10-25T19:41:20.953Z,3.68
2016-10-25T19:42:21.269Z,3.68
2016-10-25T19:43:21.321Z,3.77
2016-10-25T19:44:21.322Z,3.67
2016-10-25T19:45:21.432Z,3.71
2016-10-25T19:46:21.340Z,3.64
2016-10-25T19:47:21.414Z,3.63
2016-10-25T19:48:21.377Z,3.61
2016-10-25T19:49:21.382Z,3.66
2016-10-25T19:50:21.406Z,3.64
2016-10-25T19:51:21.111Z,3.64
2016-10-25T19:52:21.402Z,3.61
2016-10-25T19:53:21.425Z,3.59
2016-10-25T19:54:21.460Z,3.56
2016-10-25T19:55:21.460Z,3.53
2016-10-25T19:56:21.510Z,3.58
2016-10-25T19:57:21.488Z,3.56
2016-10-25T19:58:21.531Z,3.46
2016-10-25T19:59:21.499Z,3.45
2016-10-25T20:00:21.196Z,3.45
2016-10-25T20:01:21.539Z,3.45
2016-10-25T20:02:21.240Z,3.37
2016-10-25T20:03:21.236Z,3.26
2016-10-25T20:04:21.241Z,3.3
2016-10-25T20:05:21.556Z,3.29
2016-10-25T20:06:21.620Z,3.22
2016-10-25T20:07:21.621Z,3.29
